createdAt,value
2023-02-22T00:00:44.342Z,10.88
2023-02-22T00:05:47.429Z,10.87
2023-02-22T00:10:55.335Z,10.84
2023-02-22T00:15:58.616Z,10.81
2023-02-22T00:21:01.425Z,10.78
2023-02-22T00:26:03.009Z,10.74
2023-02-22T00:31:09.447Z,10.73
2023-02-22T00:36:12.710Z,10.74
2023-02-22T00:41:14.722Z,10.76
2023-02-22T00:46:16.767Z,10.76
2023-02-22T00:51:18.833Z,10.77
2023-02-22T00:56:20.870Z,10.77
2023-02-22T01:01:24.104Z,10.79
2023-02-22T01:06:25.901Z,10.79
2023-02-22T01:11:27.768Z,10.82
2023-02-22T01:16:29.419Z,10.84
2023-02-22T01:21:31.132Z,10.89
2023-02-22T01:26:32.678Z,10.90
2023-02-22T01:31:34.269Z,10.92
2023-02-22T01:36:35.888Z,10.94
2023-02-22T01:41:38.983Z,10.93
2023-02-22T01:46:40.631Z,10.93
2023-02-22T01:51:47.612Z,10.91
2023-02-22T01:57:15.610Z,10.88
2023-02-22T02:02:18.930Z,10.89
2023-02-22T02:07:22.690Z,10.88
2023-02-22T02:12:31.356Z,10.89
2023-02-22T02:17:34.467Z,10.89
2023-02-22T02:22:42.756Z,10.90
2023-02-22T02:28:03.760Z,10.88
2023-02-22T02:33:18.610Z,10.87
2023-02-22T02:38:32.187Z,10.84
2023-02-22T02:43:42.866Z,10.83
2023-02-22T02:48:54.757Z,10.81
2023-02-22T02:53:59.599Z,10.80
2023-02-22T02:59:01.160Z,10.81
2023-02-22T03:04:16.658Z,10.79
2023-02-22T03:09:40.312Z,10.72
2023-02-22T03:14:44.857Z,10.69
2023-02-22T03:20:22.275Z,10.62
2023-02-22T03:25:48.440Z,10.59
2023-02-22T03:30:56.862Z,10.57
2023-02-22T03:36:00.728Z,10.51
2023-02-22T03:41:06.562Z,10.49
2023-02-22T03:46:10.387Z,10.47
2023-02-22T03:51:17.371Z,10.43
2023-02-22T03:56:28.900Z,10.41
2023-02-22T04:01:30.567Z,10.37
2023-02-22T04:06:32.305Z,10.34
2023-02-22T04:11:35.895Z,10.33
2023-02-22T04:16:37.417Z,10.31
2023-02-22T04:21:42.689Z,10.29
2023-02-22T04:26:50.949Z,10.26
2023-02-22T04:31:53.736Z,10.22
2023-02-22T04:36:55.492Z,10.18
2023-02-22T04:41:57.323Z,10.15
2023-02-22T04:46:59.391Z,10.12
2023-02-22T04:52:01.291Z,10.07
2023-02-22T04:57:10.407Z,10.06
2023-02-22T05:02:12.304Z,10.03
2023-02-22T05:07:13.790Z,10.02
2023-02-22T05:12:15.425Z,9.98
2023-02-22T05:17:16.961Z,9.93
2023-02-22T05:22:18.527Z,9.83
2023-02-22T05:27:20.333Z,9.72
2023-02-22T05:32:21.848Z,9.64
2023-02-22T05:37:23.426Z,9.58
2023-02-22T05:42:25.392Z,9.55
2023-02-22T05:47:27.108Z,9.51
2023-02-22T05:52:28.682Z,9.47
2023-02-22T05:57:30.759Z,9.42
2023-02-22T06:02:33.046Z,9.37
2023-02-22T06:07:34.563Z,9.37
2023-02-22T06:12:36.180Z,9.32
2023-02-22T06:17:39.513Z,9.29
2023-02-22T06:22:41.286Z,9.28
2023-02-22T06:27:42.923Z,9.28
2023-02-22T06:32:47.211Z,9.27
2023-02-22T06:37:48.833Z,9.25
2023-02-22T06:42:50.306Z,9.25
2023-02-22T06:47:51.885Z,9.23
2023-02-22T06:52:53.567Z,9.17
2023-02-22T06:57:55.229Z,9.13
2023-02-22T07:02:57.592Z,9.10
2023-02-22T07:08:05.374Z,9.12
2023-02-22T07:13:10.298Z,9.12
2023-02-22T07:18:16.035Z,9.16
2023-02-22T07:23:18.276Z,9.20
2023-02-22T07:28:19.891Z,9.25
2023-02-22T07:33:21.457Z,9.30
2023-02-22T07:38:23.038Z,9.36
2023-02-22T07:43:26.727Z,9.41
2023-02-22T07:48:30.248Z,9.46
2023-02-22T07:53:33.630Z,9.51
2023-02-22T07:58:35.447Z,9.56
2023-02-22T08:03:38.094Z,9.62
2023-02-22T08:08:40.517Z,9.68
2023-02-22T08:13:42.017Z,9.75
2023-02-22T08:18:43.564Z,9.81
2023-02-22T08:23:45.171Z,9.88
2023-02-22T08:28:46.759Z,9.96
2023-02-22T08:33:51.661Z,10.08
2023-02-22T08:38:53.201Z,10.18
2023-02-22T08:43:54.725Z,10.30
2023-02-22T08:48:56.254Z,10.39
2023-02-22T08:53:57.841Z,10.49
2023-02-22T08:58:59.484Z,10.58
2023-02-22T09:04:02.152Z,10.69
2023-02-22T09:09:03.734Z,10.78
2023-02-22T09:14:05.268Z,10.86
2023-02-22T09:19:06.805Z,10.95
2023-02-22T09:24:08.790Z,11.06
2023-02-22T09:29:10.509Z,11.17
2023-02-22T09:34:15.697Z,11.29
2023-02-22T09:39:19.365Z,11.42
2023-02-22T09:44:29.897Z,11.55
2023-02-22T09:49:39.038Z,11.72
2023-02-22T09:55:04.757Z,11.90
2023-02-22T10:00:13.619Z,12.08
2023-02-22T10:05:33.684Z,12.24
2023-02-22T10:10:41.049Z,12.40
2023-02-22T10:15:47.602Z,12.53
2023-02-22T10:20:57.623Z,12.62
2023-02-22T10:26:13.642Z,12.74
2023-02-22T10:31:25.102Z,12.89
2023-02-22T10:36:27.732Z,13.00
2023-02-22T10:41:31.873Z,13.15
2023-02-22T10:46:34.558Z,13.29
2023-02-22T10:51:36.475Z,13.43
2023-02-22T10:56:48.126Z,13.56
2023-02-22T11:01:50.015Z,13.68
2023-02-22T11:07:00.770Z,13.79
2023-02-22T11:12:11.635Z,13.89
2023-02-22T11:17:18.978Z,14.00
2023-02-22T11:22:24.811Z,14.15
2023-02-22T11:27:38.152Z,14.31
2023-02-22T11:32:56.518Z,14.49
2023-02-22T11:38:36.738Z,14.66
2023-02-22T11:43:38.251Z,14.83
2023-02-22T11:48:44.878Z,14.98
2023-02-22T11:54:01.160Z,15.12
2023-02-22T11:59:21.183Z,15.26
2023-02-22T12:04:33.417Z,15.37
2023-02-22T12:09:42.906Z,15.49
2023-02-22T12:14:58.549Z,15.60
2023-02-22T12:20:25.038Z,15.75
2023-02-22T12:25:31.372Z,15.86
2023-02-22T12:30:41.146Z,16.00
2023-02-22T12:35:50.476Z,16.12
2023-02-22T12:41:18.737Z,16.19
2023-02-22T12:46:23.330Z,16.19
2023-02-22T12:52:12.433Z,16.21
2023-02-22T12:57:39.131Z,16.25
2023-02-22T13:02:47.715Z,16.28
2023-02-22T13:08:05.588Z,16.29
2023-02-22T13:13:35.964Z,16.34
2023-02-22T13:19:15.026Z,16.43
2023-02-22T13:24:28.280Z,16.52
2023-02-22T13:29:36.088Z,16.61
2023-02-22T13:34:49.746Z,16.71
2023-02-22T13:40:21.234Z,16.80
2023-02-22T13:46:07.790Z,16.90
2023-02-22T13:51:32.800Z,16.93
2023-02-22T13:56:34.650Z,16.98
2023-02-22T14:01:48.529Z,17.02
2023-02-22T14:06:51.202Z,17.08
2023-02-22T14:11:54.208Z,17.16
2023-02-22T14:17:25.224Z,17.25
2023-02-22T14:22:30.216Z,17.32
2023-02-22T14:27:41.417Z,17.43
2023-02-22T14:32:42.987Z,17.58
2023-02-22T14:37:51.444Z,17.69
2023-02-22T14:43:01.116Z,17.77
2023-02-22T14:48:39.337Z,17.88
2023-02-22T14:53:45.993Z,17.95
2023-02-22T14:59:18.447Z,18.07
2023-02-22T15:04:30.878Z,18.17
2023-02-22T15:09:37.496Z,18.21
2023-02-22T15:14:41.353Z,18.21
2023-02-22T15:19:43.123Z,18.22
2023-02-22T15:24:58.684Z,18.18
2023-02-22T15:30:04.597Z,18.10
2023-02-22T15:35:20.178Z,18.03
2023-02-22T15:40:21.859Z,17.92
2023-02-22T15:45:28.100Z,17.83
2023-02-22T15:50:30.818Z,17.72
2023-02-22T15:55:39.832Z,17.61
2023-02-22T16:00:49.959Z,17.49
2023-02-22T16:05:55.638Z,17.38
2023-02-22T16:11:05.594Z,17.26
2023-02-22T16:16:22.344Z,17.14
2023-02-22T16:21:23.864Z,17.03
2023-02-22T16:26:33.828Z,16.90
2023-02-22T16:31:40.039Z,16.77
2023-02-22T16:36:47.667Z,16.58
2023-02-22T16:41:50.929Z,16.45
2023-02-22T16:46:53.852Z,16.33
2023-02-22T16:51:59.766Z,16.23
2023-02-22T16:57:04.038Z,16.12
2023-02-22T17:02:07.629Z,15.97
2023-02-22T17:07:09.991Z,15.78
2023-02-22T17:12:11.592Z,15.60
2023-02-22T17:17:15.992Z,15.49
2023-02-22T17:22:20.254Z,15.37
2023-02-22T17:27:21.859Z,15.25
2023-02-22T17:32:23.460Z,15.18
2023-02-22T17:37:25.569Z,15.13
2023-02-22T17:42:27.094Z,15.04
2023-02-22T17:47:31.057Z,14.92
2023-02-22T17:52:32.971Z,14.85
2023-02-22T17:57:35.219Z,14.80
2023-02-22T18:02:36.763Z,14.74
2023-02-22T18:07:38.402Z,14.70
2023-02-22T18:12:40.838Z,14.68
2023-02-22T18:17:42.554Z,14.65
2023-02-22T18:22:44.664Z,14.63
2023-02-22T18:27:46.146Z,14.57
2023-02-22T18:32:47.826Z,14.49
2023-02-22T18:37:49.417Z,14.45
2023-02-22T18:42:51.004Z,14.37
2023-02-22T18:47:52.569Z,14.29
2023-02-22T18:52:55.359Z,14.24
2023-02-22T18:57:59.363Z,14.19
2023-02-22T19:03:01.252Z,14.16
2023-02-22T19:08:04.126Z,14.11
2023-02-22T19:13:10.674Z,14.05
2023-02-22T19:18:12.992Z,13.99
2023-02-22T19:23:16.870Z,13.95
2023-02-22T19:28:18.699Z,13.93
2023-02-22T19:33:20.918Z,13.90
2023-02-22T19:38:22.481Z,13.86
2023-02-22T19:43:24.118Z,13.85
2023-02-22T19:48:25.666Z,13.84
2023-02-22T19:53:27.161Z,13.79
2023-02-22T19:58:28.745Z,13.75
2023-02-22T20:03:34.936Z,13.69
2023-02-22T20:08:42.095Z,13.64
2023-02-22T20:13:43.868Z,13.62
2023-02-22T20:18:47.172Z,13.60
2023-02-22T20:23:49.116Z,13.56
2023-02-22T20:28:51.748Z,13.55
2023-02-22T20:33:55.940Z,13.54
2023-02-22T20:38:59.572Z,13.54
2023-02-22T20:44:02.802Z,13.54
2023-02-22T20:49:07.441Z,13.51
2023-02-22T20:54:12.016Z,13.50
2023-02-22T20:59:16.194Z,13.49
2023-02-22T21:04:20.273Z,13.46
2023-02-22T21:09:22.144Z,13.40
2023-02-22T21:14:25.055Z,13.36
2023-02-22T21:19:26.729Z,13.31
2023-02-22T21:24:29.022Z,13.28
2023-02-22T21:29:34.360Z,13.25
2023-02-22T21:34:36.606Z,13.21
2023-02-22T21:39:38.245Z,13.19
2023-02-22T21:44:40.125Z,13.17
2023-02-22T21:49:41.759Z,13.15
2023-02-22T21:54:43.400Z,13.14
2023-02-22T21:59:44.924Z,13.14
2023-02-22T22:04:46.508Z,13.13
2023-02-22T22:09:56.474Z,13.13
2023-02-22T22:14:58.657Z,13.10
2023-02-22T22:20:00.228Z,13.08
2023-02-22T22:25:03.386Z,13.06
2023-02-22T22:30:05.508Z,13.02
2023-02-22T22:35:14.519Z,13.00
2023-02-22T22:40:16.225Z,12.94
2023-02-22T22:45:18.103Z,12.89
2023-02-22T22:50:19.920Z,12.80
2023-02-22T22:55:24.228Z,12.80
2023-02-22T23:00:27.460Z,12.80
2023-02-22T23:05:29.344Z,12.80
2023-02-22T23:10:33.117Z,12.77
2023-02-22T23:15:34.747Z,12.75
2023-02-22T23:20:38.929Z,12.69
2023-02-22T23:25:43.838Z,12.66
2023-02-22T23:30:45.377Z,12.60
2023-02-22T23:35:49.901Z,12.54
2023-02-22T23:40:53.984Z,12.47
2023-02-22T23:45:57.218Z,12.39
2023-02-22T23:51:01.726Z,12.32
2023-02-22T23:56:09.851Z,12.28
